Time;durP1;ratioP1;P1;durP2;ratioP2;P2;SDS_P1;SDS_P2;PMS_P1;PMS_P2;Temp;Humidity;BMP_temperature;BMP_pressure;BME280_temperature;BME280_humidity;BME280_pressure;Samples;Min_cycle;Max_cycle;Signal;HPM_P1;HPM_P2
2022/04/13 00:02:36;;;;;;;9.75;5.40;;;15.70;58.30;;;;;;9187772;19;20018;-66
2022/04/13 00:05:41;;;;;;;14.23;6.43;;;15.60;58.40;;;;;;9189721;19;20029;-67
2022/04/13 00:08:47;;;;;;;9.30;5.68;;;15.60;58.40;;;;;;9185274;19;20340;-66
2022/04/13 00:11:54;;;;;;;13.68;5.82;;;15.60;58.40;;;;;;9186703;19;20022;-67
2022/04/13 00:14:59;;;;;;;13.05;5.82;;;15.60;58.50;;;;;;9188277;19;20077;-68
2022/04/13 00:18:10;;;;;;;9.73;5.65;;;15.60;58.50;;;;;;9186955;19;20023;-66
2022/04/13 00:21:16;;;;;;;12.07;6.07;;;15.60;58.60;;;;;;9187398;19;20044;-69
2022/04/13 00:24:20;;;;;;;9.95;5.95;;;15.60;59.30;;;;;;9188332;19;20435;-66
2022/04/13 00:27:26;;;;;;;7.90;5.60;;;15.60;58.70;;;;;;9186554;19;20445;-67
2022/04/13 00:30:31;;;;;;;16.92;6.15;;;15.50;58.70;;;;;;9185397;19;20010;-68
2022/04/13 00:33:38;;;;;;;10.75;5.75;;;15.60;58.80;;;;;;9189666;19;20022;-67
2022/04/13 00:36:43;;;;;;;9.98;6.57;;;15.50;58.90;;;;;;9182002;19;20022;-68
2022/04/13 00:39:48;;;;;;;10.65;6.10;;;15.50;58.80;;;;;;9186431;19;20023;-66
2022/04/13 00:42:53;;;;;;;12.50;5.57;;;15.50;59.00;;;;;;9188069;19;20033;-66
2022/04/13 00:45:59;;;;;;;11.25;6.30;;;15.50;59.00;;;;;;9186318;19;20039;-67
2022/04/13 00:49:08;;;;;;;10.82;6.75;;;15.50;59.00;;;;;;9187216;19;20099;-67
2022/04/13 00:52:14;;;;;;;12.95;6.55;;;15.40;59.10;;;;;;9183308;19;20487;-66
2022/04/13 00:55:24;;;;;;;11.88;6.45;;;15.40;59.10;;;;;;9188607;19;20038;-67
2022/04/13 00:58:31;;;;;;;8.75;6.13;;;15.40;59.10;;;;;;9186031;19;20010;-68
2022/04/13 01:01:39;;;;;;;9.98;6.25;;;15.40;59.20;;;;;;9183001;19;20014;-67
2022/04/13 01:04:48;;;;;;;11.68;5.85;;;15.40;59.30;;;;;;9185169;19;20051;-67
2022/04/13 01:07:54;;;;;;;14.50;5.75;;;15.40;59.30;;;;;;9182357;19;20025;-68
2022/04/13 01:11:00;;;;;;;12.00;6.32;;;15.40;59.30;;;;;;9185682;19;20014;-67
2022/04/13 01:14:06;;;;;;;14.45;6.88;;;15.40;59.40;;;;;;9186360;19;20014;-67
2022/04/13 01:17:11;;;;;;;11.75;7.25;;;15.30;59.40;;;;;;9182915;19;20479;-66
2022/04/13 01:20:22;;;;;;;17.33;6.93;;;15.30;59.50;;;;;;9186191;19;20015;-68
2022/04/13 01:23:30;;;;;;;9.55;6.43;;;15.30;59.60;;;;;;9184602;19;20011;-66
2022/04/13 01:26:35;;;;;;;13.90;6.85;;;15.20;59.60;;;;;;9184674;19;20015;-68
2022/04/13 01:29:40;;;;;;;13.63;6.57;;;15.20;59.60;;;;;;9185523;19;20014;-66
2022/04/13 01:32:45;;;;;;;13.95;6.35;;;15.20;59.70;;;;;;9183419;19;20466;-67
2022/04/13 01:35:50;;;;;;;10.32;5.90;;;15.20;59.70;;;;;;9178806;19;20022;-66
2022/04/13 01:38:58;;;;;;;9.80;6.22;;;15.10;59.70;;;;;;9183652;19;20018;-68
2022/04/13 01:42:02;;;;;;;19.00;6.85;;;15.10;59.80;;;;;;9184281;19;20029;-68
2022/04/13 01:45:09;;;;;;;13.98;6.10;;;15.00;59.80;;;;;;9182220;19;20522;-66
2022/04/13 01:48:14;;;;;;;11.20;5.80;;;15.00;59.80;;;;;;9184803;19;20006;-66
2022/04/13 01:51:20;;;;;;;12.40;5.97;;;15.00;60.50;;;;;;9183044;19;20022;-67
2022/04/13 01:54:28;;;;;;;14.10;6.65;;;15.00;60.00;;;;;;9184495;19;20022;-68
2022/04/13 01:57:33;;;;;;;16.15;6.72;;;14.90;60.00;;;;;;9182469;19;20014;-67
2022/04/13 02:00:38;;;;;;;14.63;6.68;;;14.90;60.10;;;;;;9184032;19;20025;-67
2022/04/13 02:03:43;;;;;;;11.15;5.93;;;14.90;60.10;;;;;;9184250;19;20014;-65
2022/04/13 02:06:49;;;;;;;9.90;6.40;;;14.80;60.10;;;;;;9183667;19;20577;-65
2022/04/13 02:09:57;;;;;;;12.32;6.07;;;14.80;60.30;;;;;;9182632;19;20028;-66
2022/04/13 02:13:02;;;;;;;11.98;6.90;;;14.70;60.30;;;;;;9180346;19;20027;-66
2022/04/13 02:16:08;;;;;;;13.30;6.70;;;14.70;60.30;;;;;;9183536;19;20025;-68
2022/04/13 02:19:13;;;;;;;14.60;5.82;;;14.70;60.40;;;;;;9184240;19;20022;-67
2022/04/13 02:22:18;;;;;;;12.98;6.50;;;14.60;60.40;;;;;;9182905;19;20007;-69
2022/04/13 02:25:46;;;;;;;12.25;6.25;;;14.60;60.50;;;;;;9181934;19;20018;-65
2022/04/13 02:28:53;;;;;;;14.32;6.47;;;14.60;60.50;;;;;;9183436;19;20025;-67
2022/04/13 02:31:57;;;;;;;13.40;7.13;;;14.50;60.50;;;;;;9182214;19;20027;-67
2022/04/13 02:35:03;;;;;;;9.40;6.10;;;14.50;60.70;;;;;;9183988;19;20014;-66
2022/04/13 02:38:08;;;;;;;11.23;5.53;;;14.50;61.30;;;;;;9177424;19;20026;-66
2022/04/13 02:41:16;;;;;;;11.88;6.57;;;14.40;60.70;;;;;;9181390;19;20436;-67
2022/04/13 02:44:21;;;;;;;16.35;6.35;;;14.40;60.90;;;;;;9180958;19;20019;-67
2022/04/13 02:47:26;;;;;;;20.05;6.70;;;14.30;60.80;;;;;;9179038;19;20011;-67
2022/04/13 02:50:31;;;;;;;12.43;6.38;;;14.30;61.00;;;;;;9179515;19;20047;-66
2022/04/13 02:53:36;;;;;;;12.40;6.80;;;14.20;61.00;;;;;;9181507;19;20010;-68
2022/04/13 02:56:44;;;;;;;19.98;7.45;;;14.20;61.00;;;;;;9180776;19;20041;-68
2022/04/13 02:59:49;;;;;;;18.38;6.47;;;14.20;61.10;;;;;;9183037;19;20017;-67
2022/04/13 03:02:54;;;;;;;15.75;6.55;;;14.10;61.10;;;;;;9181677;19;20017;-69
2022/04/13 03:06:00;;;;;;;11.68;6.82;;;14.10;61.20;;;;;;9180520;19;20066;-68
2022/04/13 03:09:05;;;;;;;14.98;6.30;;;14.10;61.30;;;;;;9178952;19;20043;-66
2022/04/13 03:12:14;;;;;;;11.10;6.90;;;14.10;61.40;;;;;;9180976;19;20483;-68
2022/04/13 03:15:22;;;;;;;15.90;6.90;;;14.00;61.40;;;;;;9180411;19;20006;-68
2022/04/13 03:18:27;;;;;;;12.68;6.45;;;13.90;61.40;;;;;;9180153;19;20041;-68
2022/04/13 03:21:32;;;;;;;16.38;6.20;;;13.90;61.50;;;;;;9179740;19;20045;-67
2022/04/13 03:24:37;;;;;;;13.13;5.93;;;13.90;61.50;;;;;;9179319;19;20034;-67
2022/04/13 03:27:45;;;;;;;11.10;6.53;;;13.80;61.60;;;;;;9179567;19;20013;-68
2022/04/13 03:30:50;;;;;;;14.98;5.95;;;13.80;61.70;;;;;;9180687;19;20102;-67
2022/04/13 03:33:55;;;;;;;14.43;6.22;;;13.80;61.70;;;;;;9178429;19;20356;-67
2022/04/13 03:37:00;;;;;;;18.50;7.40;;;13.70;61.70;;;;;;9175441;19;20018;-66
2022/04/13 03:40:06;;;;;;;17.08;6.53;;;13.70;61.80;;;;;;9180815;19;20022;-66
2022/04/13 03:43:14;;;;;;;10.77;6.13;;;13.70;61.90;;;;;;9179241;19;20506;-68
2022/04/13 03:46:19;;;;;;;10.43;5.78;;;13.60;61.90;;;;;;9179278;19;20011;-67
2022/04/13 03:49:24;;;;;;;13.65;6.22;;;13.60;61.90;;;;;;9180308;19;20063;-68
2022/04/13 03:52:29;;;;;;;11.00;6.10;;;13.60;62.00;;;;;;9179404;19;20361;-66
2022/04/13 03:55:34;;;;;;;15.15;5.90;;;13.60;62.00;;;;;;9181178;19;20040;-66
2022/04/13 03:58:42;;;;;;;15.18;6.72;;;13.50;62.10;;;;;;9182111;19;20007;-68
2022/04/13 04:01:47;;;;;;;15.02;5.78;;;13.50;62.20;;;;;;9181682;19;20093;-68
2022/04/13 04:04:53;;;;;;;17.20;6.80;;;13.40;62.20;;;;;;9187399;19;20014;-67
2022/04/13 04:07:58;;;;;;;12.77;6.55;;;13.40;62.30;;;;;;9188783;19;20488;-66
2022/04/13 04:11:03;;;;;;;11.43;6.03;;;13.40;62.40;;;;;;9187512;19;20011;-68
2022/04/13 04:14:10;;;;;;;12.90;6.15;;;13.30;62.50;;;;;;9184668;19;20025;-67
2022/04/13 04:17:15;;;;;;;18.30;5.95;;;13.30;62.50;;;;;;9189236;19;20010;-66
2022/04/13 04:20:20;;;;;;;17.33;5.97;;;13.30;62.60;;;;;;9189947;19;20026;-66
2022/04/13 04:23:25;;;;;;;22.60;6.80;;;13.20;62.60;;;;;;9189037;19;20049;-67
2022/04/13 04:26:30;;;;;;;14.73;5.55;;;13.20;63.30;;;;;;9183930;19;20018;-67
2022/04/13 04:29:38;;;;;;;10.48;6.35;;;13.20;62.70;;;;;;9186740;19;20021;-66
2022/04/13 04:32:43;;;;;;;22.50;6.30;;;13.20;62.80;;;;;;9186502;19;20011;-67
2022/04/13 04:35:50;;;;;;;17.02;5.85;;;13.20;62.80;;;;;;9182198;19;20014;-67
2022/04/13 04:38:55;;;;;;;12.27;5.95;;;13.10;62.90;;;;;;9189141;19;20018;-67
2022/04/13 04:42:02;;;;;;;9.93;5.75;;;13.10;62.90;;;;;;9186118;19;20010;-69
2022/04/13 04:45:11;;;;;;;16.30;5.90;;;13.10;63.00;;;;;;9187399;19;20025;-66
2022/04/13 04:48:22;;;;;;;15.05;6.22;;;13.10;63.20;;;;;;9186122;19;20014;-67
2022/04/13 04:51:27;;;;;;;35.13;7.15;;;13.00;63.10;;;;;;9188072;19;20011;-68
2022/04/13 04:54:32;;;;;;;17.50;7.20;;;13.00;63.20;;;;;;9182786;19;20368;-67
2022/04/13 04:57:37;;;;;;;17.27;7.40;;;13.00;63.20;;;;;;9185397;19;20018;-67
2022/04/13 05:00:45;;;;;;;16.75;7.18;;;13.00;63.30;;;;;;9185213;19;20015;-68
2022/04/13 05:03:51;;;;;;;16.00;8.02;;;12.90;63.40;;;;;;9186847;19;20007;-66
2022/04/13 05:06:56;;;;;;;23.95;8.77;;;12.90;63.40;;;;;;9184817;19;20037;-68
2022/04/13 05:10:01;;;;;;;26.05;9.23;;;12.90;63.50;;;;;;9185142;19;20022;-69
2022/04/13 05:13:07;;;;;;;22.85;8.27;;;12.90;63.70;;;;;;9183349;19;20456;-67
2022/04/13 05:16:15;;;;;;;13.18;7.03;;;12.90;63.70;;;;;;9186376;19;20006;-67
2022/04/13 05:19:20;;;;;;;15.18;7.28;;;12.90;63.80;;;;;;9183959;19;20464;-66
2022/04/13 05:22:25;;;;;;;17.10;7.40;;;12.90;63.80;;;;;;9181902;19;20094;-66
2022/04/13 05:25:30;;;;;;;19.13;7.82;;;12.90;63.90;;;;;;9185021;19;20709;-66
2022/04/13 05:28:35;;;;;;;13.65;6.38;;;12.90;64.00;;;;;;9185499;19;20006;-67
2022/04/13 05:31:43;;;;;;;13.55;6.35;;;12.90;64.00;;;;;;9186076;19;20356;-66
2022/04/13 05:34:48;;;;;;;10.68;6.90;;;12.90;64.20;;;;;;9182853;19;20014;-67
2022/04/13 05:37:53;;;;;;;12.35;6.63;;;12.90;64.20;;;;;;9179970;19;20045;-68
2022/04/13 05:40:58;;;;;;;16.33;6.25;;;12.90;64.30;;;;;;9183927;19;20010;-66
2022/04/13 05:44:03;;;;;;;13.50;6.35;;;12.90;64.40;;;;;;9185361;19;20476;-66
2022/04/13 05:47:10;;;;;;;19.30;6.70;;;12.90;64.40;;;;;;9184334;19;20010;-67
2022/04/13 05:50:17;;;;;;;22.05;7.00;;;12.90;64.50;;;;;;9183761;19;20512;-67
2022/04/13 05:53:22;;;;;;;17.85;7.40;;;12.90;64.50;;;;;;9184138;19;20021;-68
2022/04/13 05:56:27;;;;;;;20.65;7.57;;;13.00;64.60;;;;;;9183755;19;20010;-67
2022/04/13 05:59:33;;;;;;;14.10;6.55;;;13.00;64.70;;;;;;9185305;19;20017;-67
2022/04/13 06:02:42;;;;;;;17.58;7.80;;;13.00;64.80;;;;;;9183334;19;20018;-67
2022/04/13 06:05:47;;;;;;;20.92;8.27;;;13.10;65.00;;;;;;9184985;19;20063;-67
2022/04/13 06:08:52;;;;;;;24.58;8.57;;;13.10;64.90;;;;;;9181476;19;20029;-67
2022/04/13 06:12:02;;;;;;;18.13;8.98;;;13.10;64.90;;;;;;9184533;19;20018;-67
2022/04/13 06:15:09;;;;;;;27.05;8.27;;;13.20;65.10;;;;;;9179273;19;20759;-66
2022/04/13 06:18:17;;;;;;;23.52;8.73;;;13.20;65.10;;;;;;9171509;19;20022;-66
2022/04/13 06:21:22;;;;;;;18.48;7.57;;;13.30;65.90;;;;;;9170616;19;20403;-66
2022/04/13 06:24:27;;;;;;;13.82;7.88;;;13.30;65.20;;;;;;9178260;19;20021;-67
2022/04/13 06:27:32;;;;;;;16.85;7.47;;;13.40;65.30;;;;;;9184442;19;20015;-66
2022/04/13 06:30:37;;;;;;;18.10;7.70;;;13.50;65.50;;;;;;9183408;19;20392;-66
2022/04/13 06:33:44;;;;;;;15.30;7.30;;;13.60;65.60;;;;;;9179028;19;20022;-67
2022/04/13 06:36:49;;;;;;;22.85;7.20;;;13.70;65.70;;;;;;9175258;19;20074;-67
2022/04/13 06:39:55;;;;;;;17.15;6.93;;;13.80;65.70;;;;;;9166391;19;20245;-67
2022/04/13 06:43:00;;;;;;;19.83;7.32;;;13.90;65.80;;;;;;9178191;19;20011;-64
2022/04/13 06:46:06;;;;;;;14.73;6.97;;;14.00;65.80;;;;;;9178315;19;20028;-63
2022/04/13 06:49:13;;;;;;;13.98;6.45;;;14.10;65.80;;;;;;9180680;19;20104;-62
2022/04/13 06:52:18;;;;;;;17.13;6.95;;;14.20;65.90;;;;;;9175376;19;20022;-63
2022/04/13 06:55:23;;;;;;;19.33;7.22;;;14.40;66.00;;;;;;9180214;19;20023;-63
2022/04/13 06:58:28;;;;;;;19.35;6.70;;;14.50;66.00;;;;;;9179644;19;20360;-64
2022/04/13 07:01:34;;;;;;;14.63;7.07;;;14.70;66.00;;;;;;9181691;19;20043;-64
2022/04/13 07:04:42;;;;;;;27.23;7.85;;;14.80;66.00;;;;;;9180354;19;20028;-64
2022/04/13 07:07:47;;;;;;;23.67;7.07;;;15.00;66.20;;;;;;9181027;19;20018;-64
2022/04/13 07:10:52;;;;;;;14.07;6.43;;;15.20;66.10;;;;;;9180923;19;20029;-64
2022/04/13 07:13:57;;;;;;;16.00;7.07;;;15.40;66.10;;;;;;9178988;19;20023;-61
2022/04/13 07:17:02;;;;;;;17.83;7.70;;;15.60;66.80;;;;;;9181142;19;20014;-64
2022/04/13 07:20:12;;;;;;;21.27;6.22;;;15.80;66.10;;;;;;9181267;19;20025;-64
2022/04/13 07:23:17;;;;;;;21.92;6.93;;;16.00;66.00;;;;;;9178479;19;20021;-64
2022/04/13 07:26:22;;;;;;;21.13;6.90;;;16.20;65.90;;;;;;9171646;19;20014;-64
2022/04/13 07:29:27;;;;;;;13.57;5.85;;;16.40;65.90;;;;;;9174025;19;20018;-64
2022/04/13 07:32:32;;;;;;;20.10;6.43;;;16.60;65.80;;;;;;9178169;19;20344;-65
2022/04/13 07:35:40;;;;;;;15.60;6.00;;;16.90;65.70;;;;;;9172558;19;20021;-64
2022/04/13 07:38:45;;;;;;;18.13;6.38;;;17.10;65.70;;;;;;9191239;19;20007;-64
2022/04/13 07:41:50;;;;;;;17.65;5.05;;;17.30;65.50;;;;;;9188729;19;20018;-64
2022/04/13 07:44:56;;;;;;;9.85;4.72;;;17.50;65.40;;;;;;9187922;19;20395;-64
2022/04/13 07:48:04;;;;;;;15.48;4.85;;;17.60;65.20;;;;;;9188590;19;20051;-65
2022/04/13 07:51:11;;;;;;;10.70;4.80;;;17.80;65.10;;;;;;9189063;19;20015;-65
2022/04/13 07:54:16;;;;;;;13.68;5.15;;;18.00;64.40;;;;;;9189708;19;20014;-64
2022/04/13 07:57:42;;;;;;;16.75;5.30;;;18.20;64.80;;;;;;9191029;19;20059;-64
2022/04/13 08:00:47;;;;;;;14.50;6.03;;;18.30;64.60;;;;;;9190563;19;20010;-63
2022/04/13 08:03:52;;;;;;;25.00;5.75;;;18.50;64.50;;;;;;9188410;19;20400;-63
2022/04/13 08:07:20;;;;;;;13.88;5.47;;;18.60;64.40;;;;;;9189226;19;20022;-63
2022/04/13 08:10:25;;;;;;;11.25;5.03;;;18.80;64.30;;;;;;9185161;19;20037;-64
2022/04/13 08:13:34;;;;;;;12.65;6.25;;;18.90;64.20;;;;;;9188687;19;20014;-64
2022/04/13 08:16:57;;;;;;;11.32;5.13;;;19.00;64.70;;;;;;9183843;19;20105;-66
2022/04/13 08:20:02;;;;;;;18.83;6.00;;;19.10;63.90;;;;;;9182029;19;20471;-65
2022/04/13 08:23:10;;;;;;;15.45;6.22;;;19.20;63.80;;;;;;9185128;19;20010;-67
2022/04/13 08:26:15;;;;;;;11.60;5.45;;;19.30;63.70;;;;;;9179992;19;20022;-66
2022/04/13 08:29:20;;;;;;;18.38;6.28;;;19.40;63.60;;;;;;9182977;19;20027;-65
2022/04/13 08:32:25;;;;;;;14.63;5.07;;;19.50;63.50;;;;;;9183465;19;20026;-66
2022/04/13 08:35:30;;;;;;;15.90;5.88;;;19.60;63.30;;;;;;9175456;19;20014;-65
2022/04/13 08:38:38;;;;;;;18.10;5.05;;;19.70;63.30;;;;;;9182614;19;20344;-64
2022/04/13 08:41:50;;;;;;;16.27;6.32;;;19.70;63.20;;;;;;9181666;19;20030;-65
2022/04/13 08:44:55;;;;;;;13.35;5.43;;;19.80;63.20;;;;;;9180377;19;20011;-65
2022/04/13 08:48:01;;;;;;;11.45;4.65;;;19.90;63.20;;;;;;9177505;19;20018;-66
2022/04/13 08:51:07;;;;;;;17.10;4.80;;;20.00;63.00;;;;;;9185630;19;20030;-66
2022/04/13 08:54:23;;;;;;;9.55;4.00;;;20.00;62.80;;;;;;9186583;19;20013;-67
2022/04/13 08:57:30;;;;;;;10.52;3.80;;;20.10;62.80;;;;;;9188004;19;20017;-66
2022/04/13 09:00:38;;;;;;;11.10;3.70;;;20.20;62.70;;;;;;9187670;19;20022;-66
2022/04/13 09:03:46;;;;;;;7.18;3.25;;;20.20;62.50;;;;;;9188072;19;20347;-64
2022/04/13 09:06:51;;;;;;;11.48;3.03;;;20.20;62.40;;;;;;9183579;19;20383;-65
2022/04/13 09:10:03;;;;;;;7.72;2.90;;;20.30;62.30;;;;;;9186419;19;20010;-66
2022/04/13 09:13:11;;;;;;;7.22;2.70;;;20.40;62.30;;;;;;9187482;19;20578;-65
2022/04/13 09:16:17;;;;;;;8.80;2.55;;;20.40;62.20;;;;;;9183377;19;20078;-65
2022/04/13 09:19:23;;;;;;;8.13;2.63;;;20.40;62.10;;;;;;9185003;19;20523;-65
2022/04/13 09:22:28;;;;;;;15.00;3.58;;;20.40;62.00;;;;;;9185270;19;20025;-65
2022/04/13 09:25:38;;;;;;;9.23;3.63;;;20.40;62.00;;;;;;9187395;19;20574;-65
2022/04/13 09:28:44;;;;;;;7.40;2.90;;;20.50;61.90;;;;;;9185657;19;20011;-65
2022/04/13 09:31:49;;;;;;;7.10;3.28;;;20.50;61.90;;;;;;9185128;19;20022;-64
2022/04/13 09:34:55;;;;;;;7.18;2.90;;;20.50;61.90;;;;;;9184071;19;20082;-66
2022/04/13 09:38:03;;;;;;;7.60;3.35;;;20.60;61.80;;;;;;9181636;19;20019;-64
2022/04/13 09:41:13;;;;;;;7.00;3.20;;;20.50;61.70;;;;;;9183108;19;20010;-64
2022/04/13 09:44:18;;;;;;;9.13;2.97;;;20.60;61.80;;;;;;9185329;19;20497;-65
2022/04/13 09:47:23;;;;;;;8.90;3.30;;;20.60;61.70;;;;;;9186944;19;20007;-66
2022/04/13 09:50:28;;;;;;;8.55;3.45;;;20.70;61.80;;;;;;9183783;19;20475;-65
2022/04/13 09:53:34;;;;;;;9.00;3.92;;;20.70;61.70;;;;;;9185359;19;20029;-64
2022/04/13 09:56:47;;;;;;;8.73;3.40;;;20.90;61.80;;;;;;9181449;19;20017;-65
2022/04/13 09:59:58;;;;;;;6.93;3.65;;;21.00;61.70;;;;;;9183048;19;20025;-64
2022/04/13 10:03:15;;;;;;;7.60;3.22;;;21.10;61.50;;;;;;9181387;19;20029;-66
2022/04/13 10:06:29;;;;;;;11.45;3.80;;;21.30;61.40;;;;;;9184141;19;20451;-64
2022/04/13 10:09:34;;;;;;;10.63;2.90;;;21.50;61.20;;;;;;9180797;19;20424;-66
2022/04/13 10:12:54;;;;;;;8.80;3.13;;;21.60;61.30;;;;;;9183646;19;20014;-65
2022/04/13 10:16:01;;;;;;;10.27;3.30;;;21.80;61.00;;;;;;9180837;19;20007;-65
2022/04/13 10:19:07;;;;;;;13.32;3.58;;;22.00;61.00;;;;;;9183595;19;20017;-64
2022/04/13 10:22:12;;;;;;;12.38;3.60;;;22.20;60.80;;;;;;9184553;19;20090;-64
2022/04/13 10:25:25;;;;;;;8.07;4.38;;;22.30;60.60;;;;;;9181811;19;20015;-65
2022/04/13 10:28:33;;;;;;;9.27;3.83;;;22.60;60.40;;;;;;9179616;19;20024;-64
2022/04/13 10:31:38;;;;;;;9.73;4.72;;;22.70;60.20;;;;;;9172689;19;20971;-64
2022/04/13 10:34:44;;;;;;;9.15;4.30;;;22.90;60.00;;;;;;9176170;19;20471;-65
2022/04/13 10:37:49;;;;;;;10.65;4.38;;;23.00;59.90;;;;;;9165523;19;20006;-64
2022/04/13 10:40:56;;;;;;;9.63;3.60;;;23.20;59.80;;;;;;9173933;19;20021;-66
2022/04/13 10:44:05;;;;;;;9.93;3.70;;;23.30;59.60;;;;;;9170865;19;20022;-66
2022/04/13 10:47:11;;;;;;;11.10;3.75;;;23.50;59.40;;;;;;9173054;19;20018;-65
2022/04/13 10:50:17;;;;;;;7.57;4.07;;;23.60;59.20;;;;;;9168855;19;20047;-67
2022/04/13 10:53:26;;;;;;;13.70;4.57;;;23.70;59.10;;;;;;9169324;19;20014;-66
2022/04/13 10:56:34;;;;;;;12.68;3.65;;;23.80;59.00;;;;;;9170564;19;20015;-66
2022/04/13 10:59:49;;;;;;;10.05;3.45;;;23.90;58.80;;;;;;9178025;19;20482;-68
2022/04/13 11:02:57;;;;;;;14.73;3.50;;;24.00;58.50;;;;;;9177247;19;20021;-69
2022/04/13 11:06:05;;;;;;;8.73;3.08;;;24.00;58.40;;;;;;9175460;19;20022;-68
2022/04/13 11:09:16;;;;;;;12.48;3.55;;;24.10;58.30;;;;;;9172600;19;20026;-69
2022/04/13 11:12:21;;;;;;;10.38;3.97;;;24.10;58.10;;;;;;9175738;19;20019;-67
2022/04/13 11:15:43;;;;;;;10.05;3.92;;;24.20;58.00;;;;;;9177583;19;20029;-68
2022/04/13 11:19:24;;;;;;;9.85;3.85;;;24.20;57.70;;;;;;9177375;19;20074;-66
2022/04/13 11:22:36;;;;;;;5.25;2.28;;;24.20;57.70;;;;;;9175965;19;20010;-67
2022/04/13 11:25:58;;;;;;;10.18;3.65;;;24.20;57.60;;;;;;9175455;19;20022;-67
2022/04/13 11:29:18;;;;;;;8.30;3.03;;;24.10;57.50;;;;;;9175805;19;20471;-67
2022/04/13 11:32:31;;;;;;;8.63;2.95;;;24.10;57.40;;;;;;9175405;19;20363;-66
2022/04/13 11:35:36;;;;;;;9.77;3.75;;;24.00;57.40;;;;;;9171652;19;20503;-67
2022/04/13 11:38:49;;;;;;;10.48;3.33;;;24.00;57.50;;;;;;9175150;19;20364;-67
2022/04/13 11:41:54;;;;;;;10.27;3.85;;;23.90;57.30;;;;;;9176047;19;20029;-67
2022/04/13 11:45:04;;;;;;;5.88;3.35;;;23.80;58.00;;;;;;9175176;19;20011;-68
2022/04/13 11:48:12;;;;;;;19.40;4.10;;;23.80;57.40;;;;;;9176410;19;20027;-68
2022/04/13 11:51:29;;;;;;;9.15;3.55;;;23.70;57.30;;;;;;9173705;19;20011;-67
2022/04/13 11:54:47;;;;;;;12.77;3.30;;;23.60;57.30;;;;;;9175119;19;20048;-67
2022/04/13 11:58:09;;;;;;;10.38;3.20;;;23.50;57.40;;;;;;9168129;19;20047;-68
2022/04/13 12:01:25;;;;;;;9.45;4.15;;;23.50;57.50;;;;;;9174979;19;20014;-68
2022/04/13 12:04:36;;;;;;;7.63;3.42;;;23.30;57.70;;;;;;9172627;19;20030;-68
2022/04/13 12:07:46;;;;;;;6.22;3.47;;;23.30;57.60;;;;;;9170504;19;20019;-67
2022/04/13 12:10:53;;;;;;;9.48;3.20;;;23.20;57.60;;;;;;9168252;19;20022;-67
2022/04/13 12:14:00;;;;;;;8.60;3.25;;;23.20;57.70;;;;;;9169037;19;20010;-68
2022/04/13 12:17:06;;;;;;;11.07;3.00;;;23.20;57.60;;;;;;9171700;19;20846;-67
2022/04/13 12:20:31;;;;;;;10.75;3.20;;;23.10;57.60;;;;;;9168210;19;20352;-66
2022/04/13 12:23:38;;;;;;;8.50;3.72;;;23.10;57.40;;;;;;9172519;19;20021;-67
2022/04/13 12:26:45;;;;;;;13.32;3.08;;;23.10;57.50;;;;;;9180064;19;20015;-67
2022/04/13 12:29:50;;;;;;;7.75;3.10;;;23.10;57.50;;;;;;9177912;19;20015;-67
2022/04/13 12:32:55;;;;;;;16.13;3.70;;;23.10;57.50;;;;;;9176085;19;20029;-67
2022/04/13 12:36:05;;;;;;;9.23;3.63;;;23.00;57.50;;;;;;9173066;19;20051;-70
2022/04/13 12:39:12;;;;;;;12.10;3.88;;;23.00;57.40;;;;;;9178722;19;20015;-68
2022/04/13 12:42:25;;;;;;;7.93;3.35;;;22.90;57.40;;;;;;9174627;19;20022;-68
2022/04/13 12:45:31;;;;;;;10.30;3.55;;;22.90;57.30;;;;;;9172970;19;20054;-67
2022/04/13 12:48:36;;;;;;;7.78;3.00;;;22.80;57.40;;;;;;9174883;19;20372;-69
2022/04/13 12:51:44;;;;;;;11.07;3.40;;;22.70;57.30;;;;;;9175726;19;20034;-65
2022/04/13 12:54:49;;;;;;;10.13;3.53;;;22.60;57.20;;;;;;9177307;19;20042;-69
2022/04/13 12:57:54;;;;;;;9.55;4.10;;;22.60;57.30;;;;;;9173146;19;20019;-67
2022/04/13 13:00:59;;;;;;;7.88;3.95;;;22.40;57.20;;;;;;9176770;19;20018;-69
2022/04/13 13:04:14;;;;;;;11.20;4.40;;;22.40;57.40;;;;;;9178263;19;20023;-68
2022/04/13 13:07:32;;;;;;;9.75;5.05;;;22.30;57.30;;;;;;9180823;19;20014;-68
2022/04/13 13:10:44;;;;;;;11.00;4.43;;;22.20;57.30;;;;;;9172169;19;20115;-66
2022/04/13 13:13:49;;;;;;;10.20;4.40;;;22.10;57.50;;;;;;9175012;19;20022;-66
2022/04/13 13:16:54;;;;;;;17.33;5.93;;;22.10;57.60;;;;;;9180037;19;20019;-66
2022/04/13 13:20:10;;;;;;;10.05;4.18;;;22.00;57.60;;;;;;9178188;19;20363;-67
2022/04/13 13:23:25;;;;;;;5.60;3.60;;;22.00;57.60;;;;;;9177103;19;20010;-66
2022/04/13 13:26:30;;;;;;;14.80;4.35;;;21.90;57.60;;;;;;9177144;19;20022;-66
2022/04/13 13:29:35;;;;;;;11.90;4.18;;;21.80;57.70;;;;;;9182751;19;20021;-66
2022/04/13 13:32:42;;;;;;;12.23;4.88;;;21.80;57.70;;;;;;9183829;19;20424;-66
2022/04/13 13:35:47;;;;;;;9.57;4.22;;;21.80;57.70;;;;;;9174147;19;20017;-67
2022/04/13 13:38:59;;;;;;;9.95;4.65;;;21.80;57.70;;;;;;9179453;19;20368;-67
2022/04/13 13:42:06;;;;;;;13.57;4.75;;;21.70;57.70;;;;;;9179667;19;20018;-68
2022/04/13 13:45:19;;;;;;;12.13;4.95;;;21.70;57.70;;;;;;9181383;19;20018;-67
2022/04/13 13:48:27;;;;;;;13.93;3.75;;;21.70;57.60;;;;;;9178566;19;20021;-67
2022/04/13 13:51:34;;;;;;;13.85;4.80;;;21.70;57.70;;;;;;9179053;19;20019;-67
2022/04/13 13:54:42;;;;;;;14.30;5.03;;;21.60;57.60;;;;;;9181046;19;20179;-67
2022/04/13 13:57:47;;;;;;;11.45;5.13;;;21.60;57.60;;;;;;9174648;19;20018;-67
2022/04/13 14:00:52;;;;;;;12.45;4.97;;;21.60;57.70;;;;;;9174866;19;20018;-66
2022/04/13 14:03:57;;;;;;;12.73;5.05;;;21.50;57.70;;;;;;9172760;19;20030;-67
2022/04/13 14:07:02;;;;;;;14.90;5.28;;;21.50;57.90;;;;;;9172471;19;20043;-68
2022/04/13 14:10:12;;;;;;;11.98;4.90;;;21.40;57.90;;;;;;9171589;19;20022;-67
2022/04/13 14:13:19;;;;;;;12.90;4.95;;;21.40;58.00;;;;;;9170765;19;20011;-68
2022/04/13 14:16:24;;;;;;;13.52;5.28;;;21.30;58.10;;;;;;9174206;19;20026;-67
2022/04/13 14:19:33;;;;;;;11.48;4.93;;;21.30;58.20;;;;;;9177209;19;20010;-67
2022/04/13 14:22:39;;;;;;;11.52;4.50;;;21.30;58.20;;;;;;9176634;19;20014;-66
2022/04/13 14:25:50;;;;;;;8.60;4.10;;;21.20;58.20;;;;;;9176352;19;20013;-66
2022/04/13 14:28:55;;;;;;;10.63;4.30;;;21.20;58.20;;;;;;9175895;19;20051;-65
2022/04/13 14:32:00;;;;;;;12.23;3.97;;;21.20;58.20;;;;;;9176721;19;20356;-66
2022/04/13 14:35:07;;;;;;;11.88;4.55;;;21.10;58.20;;;;;;9176361;19;20460;-66
2022/04/13 14:38:12;;;;;;;6.47;3.70;;;21.10;58.30;;;;;;9170749;19;20023;-66
2022/04/13 14:41:20;;;;;;;11.00;3.58;;;21.00;58.30;;;;;;9177644;19;20011;-66
2022/04/13 14:44:25;;;;;;;7.65;3.15;;;21.00;58.40;;;;;;9176696;19;20017;-65
2022/04/13 14:47:30;;;;;;;7.90;3.15;;;20.90;58.40;;;;;;9173966;19;20026;-67
2022/04/13 14:50:36;;;;;;;9.32;3.17;;;20.90;58.40;;;;;;9176370;19;20082;-68
2022/04/13 14:53:41;;;;;;;13.45;3.30;;;20.80;58.30;;;;;;9176810;19;20132;-66
2022/04/13 14:56:49;;;;;;;8.85;3.03;;;20.80;58.30;;;;;;9177012;19;20478;-67
2022/04/13 14:59:54;;;;;;;7.20;2.97;;;20.70;58.30;;;;;;9176644;19;20022;-66
2022/04/13 15:02:59;;;;;;;9.23;3.53;;;20.70;58.40;;;;;;9172779;19;20022;-65
2022/04/13 15:06:05;;;;;;;16.52;3.90;;;20.70;58.40;;;;;;9176547;19;20022;-68
2022/04/13 15:09:10;;;;;;;7.68;2.90;;;20.60;58.30;;;;;;9173635;19;20066;-68
2022/04/13 15:12:21;;;;;;;7.20;2.72;;;20.60;58.40;;;;;;9177272;19;20479;-68
2022/04/13 15:15:26;;;;;;;8.43;3.25;;;20.50;58.40;;;;;;9174210;19;20018;-66
2022/04/13 15:18:31;;;;;;;7.20;2.33;;;20.50;58.40;;;;;;9167206;19;20021;-66
2022/04/13 15:21:37;;;;;;;7.97;2.17;;;20.40;58.50;;;;;;9174954;19;20497;-66
2022/04/13 15:24:42;;;;;;;9.70;2.70;;;20.40;59.10;;;;;;9172182;19;20022;-67
2022/04/13 15:27:50;;;;;;;13.68;3.42;;;20.30;58.40;;;;;;9162631;19;20029;-67
2022/04/13 15:31:03;;;;;;;10.95;3.33;;;20.30;58.50;;;;;;9175975;19;20586;-67
2022/04/13 15:34:08;;;;;;;8.82;2.75;;;20.30;58.60;;;;;;9173243;19;20018;-66
2022/04/13 15:37:13;;;;;;;8.38;3.75;;;20.20;58.60;;;;;;9170826;19;20370;-67
2022/04/13 15:40:22;;;;;;;14.43;3.97;;;20.10;58.70;;;;;;9172927;19;20026;-69
2022/04/13 15:43:50;;;;;;;10.38;2.95;;;20.10;58.70;;;;;;9175987;19;20500;-66
2022/04/13 15:46:55;;;;;;;8.90;2.50;;;20.10;58.90;;;;;;9173275;19;20018;-65
2022/04/13 15:50:02;;;;;;;8.25;3.17;;;20.00;59.00;;;;;;9174142;19;20120;-65
2022/04/13 15:53:08;;;;;;;10.05;3.78;;;20.00;59.00;;;;;;9175569;19;20018;-66
2022/04/13 15:56:13;;;;;;;10.45;2.85;;;19.90;59.10;;;;;;9173380;19;20021;-66
2022/04/13 15:59:21;;;;;;;10.45;2.92;;;19.90;59.30;;;;;;9182553;19;20014;-66
2022/04/13 16:02:26;;;;;;;7.30;2.70;;;19.80;59.30;;;;;;9182794;19;20022;-67
2022/04/13 16:05:33;;;;;;;12.43;3.10;;;19.80;59.50;;;;;;9184176;19;20022;-66
2022/04/13 16:08:38;;;;;;;15.20;3.05;;;19.70;59.60;;;;;;9180069;19;20349;-69